createdAt,value
2023-05-15T00:01:36.181Z,14.13
2023-05-15T00:04:40.591Z,14.37
2023-05-15T00:07:43.678Z,14.47
2023-05-15T00:10:57.516Z,15.43
2023-05-15T00:14:03.642Z,15.47
2023-05-15T00:17:07.753Z,15.93
2023-05-15T00:20:13.241Z,15.37
2023-05-15T00:23:16.333Z,16.47
2023-05-15T00:26:19.426Z,14.83
2023-05-15T00:29:22.533Z,14.43
2023-05-15T00:32:25.638Z,15.23
2023-05-15T00:35:29.926Z,15.73
2023-05-15T00:38:34.330Z,15.33
2023-05-15T00:41:38.611Z,16.03
2023-05-15T00:44:45.121Z,15.63
2023-05-15T00:47:49.073Z,15.40
2023-05-15T00:50:54.610Z,16.87
2023-05-15T00:53:59.867Z,14.63
2023-05-15T00:57:06.789Z,15.37
2023-05-15T01:00:11.829Z,14.43
2023-05-15T01:03:15.012Z,15.80
2023-05-15T01:06:19.519Z,16.20
2023-05-15T01:09:25.677Z,16.90
2023-05-15T01:12:31.672Z,15.73
2023-05-15T01:15:35.251Z,15.73
2023-05-15T01:18:38.573Z,15.03
2023-05-15T01:22:34.350Z,15.87
2023-05-15T01:26:00.408Z,15.97
2023-05-15T01:29:10.460Z,15.13
2023-05-15T01:32:21.790Z,15.37
2023-05-15T01:35:32.149Z,17.47
2023-05-15T01:38:40.709Z,18.60
2023-05-15T01:41:52.173Z,18.63
2023-05-15T01:45:01.595Z,18.13
2023-05-15T01:48:09.199Z,18.77
2023-05-15T01:51:16.015Z,19.17
2023-05-15T01:54:23.726Z,19.57
2023-05-15T01:57:27.881Z,18.47
2023-05-15T02:00:34.315Z,19.37
2023-05-15T02:03:38.470Z,17.53
2023-05-15T02:06:42.450Z,19.40
2023-05-15T02:09:47.230Z,19.20
2023-05-15T02:12:51.185Z,17.50
2023-05-15T02:15:57.186Z,18.97
2023-05-15T02:19:02.663Z,20.10
2023-05-15T02:22:06.115Z,19.10
2023-05-15T02:25:10.563Z,18.70
2023-05-15T02:28:27.530Z,19.33
2023-05-15T02:31:39.374Z,19.53
2023-05-15T02:34:56.963Z,18.30
2023-05-15T02:38:04.108Z,19.37
2023-05-15T02:41:08.706Z,19.73
2023-05-15T02:44:13.260Z,21.40
2023-05-15T02:47:18.772Z,19.87
2023-05-15T02:50:22.292Z,19.53
2023-05-15T02:53:25.350Z,20.60
2023-05-15T02:56:28.416Z,20.13
2023-05-15T02:59:31.567Z,18.63
2023-05-15T03:02:36.161Z,18.53
2023-05-15T03:05:39.369Z,19.20
2023-05-15T03:08:42.998Z,18.47
2023-05-15T03:11:46.102Z,18.97
2023-05-15T03:14:49.376Z,19.50
2023-05-15T03:17:53.936Z,19.10
2023-05-15T03:20:57.110Z,17.63
2023-05-15T03:24:00.168Z,18.77
2023-05-15T03:27:03.286Z,17.50
2023-05-15T03:30:11.165Z,18.60
2023-05-15T03:33:15.522Z,16.80
2023-05-15T03:36:18.820Z,17.73
2023-05-15T03:39:21.858Z,18.73
2023-05-15T03:42:25.651Z,18.90
2023-05-15T03:45:28.966Z,17.80
2023-05-15T03:48:33.489Z,19.30
2023-05-15T03:51:36.909Z,18.60
2023-05-15T03:54:40.741Z,19.77
2023-05-15T03:57:43.811Z,17.97
2023-05-15T04:00:46.905Z,19.30
2023-05-15T04:03:51.173Z,17.00
2023-05-15T04:06:54.593Z,19.20
2023-05-15T04:10:01.333Z,17.77
2023-05-15T04:13:04.404Z,19.30
2023-05-15T04:16:08.354Z,17.27
2023-05-15T04:19:12.819Z,17.93
2023-05-15T04:22:15.842Z,18.33
2023-05-15T04:25:20.359Z,21.30
2023-05-15T04:28:25.717Z,19.23
2023-05-15T04:31:28.881Z,22.33
2023-05-15T04:34:33.740Z,19.30
2023-05-15T04:37:36.993Z,19.97
2023-05-15T04:40:40.499Z,21.17
2023-05-15T04:43:43.652Z,19.17
2023-05-15T04:46:46.795Z,20.07
2023-05-15T04:49:51.181Z,19.10
2023-05-15T04:52:54.251Z,19.00
2023-05-15T04:55:57.295Z,19.97
2023-05-15T04:59:05.861Z,22.83
2023-05-15T05:02:10.909Z,18.67
2023-05-15T05:05:15.569Z,17.07
2023-05-15T05:08:18.669Z,17.43
2023-05-15T05:11:22.345Z,17.60
2023-05-15T05:14:25.425Z,17.27
2023-05-15T05:17:28.538Z,17.33
2023-05-15T05:20:32.913Z,15.93
2023-05-15T05:23:36.090Z,14.50
2023-05-15T05:26:39.408Z,15.03
2023-05-15T05:29:42.406Z,14.30
2023-05-15T05:32:45.468Z,14.83
2023-05-15T05:35:49.856Z,15.10
2023-05-15T05:38:52.831Z,15.30
2023-05-15T05:41:55.858Z,13.87
2023-05-15T05:44:59.126Z,14.10
2023-05-15T05:48:02.283Z,15.03
2023-05-15T05:51:06.891Z,13.30
2023-05-15T05:54:09.868Z,15.10
2023-05-15T05:57:12.965Z,15.57
2023-05-15T06:00:17.166Z,15.30
2023-05-15T06:03:20.243Z,14.40
2023-05-15T06:06:24.828Z,13.87
2023-05-15T06:09:27.997Z,13.00
2023-05-15T06:12:31.282Z,14.77
2023-05-15T06:15:34.404Z,14.73
2023-05-15T06:18:37.661Z,14.57
2023-05-15T06:21:42.027Z,15.27
2023-05-15T06:24:45.034Z,16.00
2023-05-15T06:27:48.412Z,15.67
2023-05-15T06:30:51.478Z,13.37
2023-05-15T06:33:54.515Z,13.13
2023-05-15T06:36:58.860Z,13.50
2023-05-15T06:40:01.876Z,13.00
2023-05-15T06:43:05.041Z,12.43
2023-05-15T06:46:08.272Z,11.03
2023-05-15T06:49:11.268Z,13.17
2023-05-15T06:52:15.607Z,10.40
2023-05-15T06:55:19.240Z,18.10
2023-05-15T06:58:22.314Z,13.60
2023-05-15T07:01:25.496Z,13.40
2023-05-15T07:04:28.957Z,12.40
2023-05-15T07:07:33.340Z,12.65
2023-05-15T07:10:36.281Z,11.27
2023-05-15T07:13:39.291Z,10.07
2023-05-15T07:16:42.375Z,10.35
2023-05-15T07:19:45.511Z,10.43
2023-05-15T07:22:56.198Z,10.07
2023-05-15T07:26:00.139Z,11.38
2023-05-15T07:29:04.135Z,10.38
2023-05-15T07:32:08.418Z,10.88
2023-05-15T07:35:12.398Z,10.57
2023-05-15T07:38:16.878Z,9.88
2023-05-15T07:41:19.917Z,10.07
2023-05-15T07:44:23.042Z,9.65
2023-05-15T07:47:26.150Z,8.55
2023-05-15T07:50:29.126Z,9.80
2023-05-15T07:53:34.011Z,8.05
2023-05-15T07:56:37.753Z,8.38
2023-05-15T07:59:41.178Z,8.05
2023-05-15T08:02:46.401Z,9.23
2023-05-15T08:05:49.686Z,8.98
2023-05-15T08:08:54.065Z,8.77
2023-05-15T08:12:17.506Z,9.13
2023-05-15T08:15:21.050Z,9.43
2023-05-15T08:18:24.137Z,9.25
2023-05-15T08:21:27.450Z,9.02
2023-05-15T08:24:31.711Z,9.00
2023-05-15T08:27:34.649Z,8.27
2023-05-15T08:30:38.033Z,8.45
2023-05-15T08:33:41.209Z,8.93
2023-05-15T08:36:45.725Z,9.43
2023-05-15T08:39:50.347Z,9.50
2023-05-15T08:42:56.303Z,9.20
2023-05-15T08:46:00.690Z,9.88
2023-05-15T08:49:12.867Z,9.05
2023-05-15T08:52:19.198Z,9.43
2023-05-15T08:55:24.013Z,8.85
2023-05-15T08:58:28.729Z,8.75
2023-05-15T09:01:32.233Z,8.02
2023-05-15T09:04:35.280Z,8.70
2023-05-15T09:07:40.901Z,8.35
2023-05-15T09:10:45.607Z,7.70
2023-05-15T09:13:48.978Z,8.98
2023-05-15T09:16:53.440Z,8.07
2023-05-15T09:19:56.655Z,7.93
2023-05-15T09:23:04.173Z,8.82
2023-05-15T09:26:13.714Z,7.50
2023-05-15T09:29:19.151Z,7.65
2023-05-15T09:32:22.734Z,8.52
2023-05-15T09:35:34.053Z,7.85
2023-05-15T09:38:42.604Z,6.95
2023-05-15T09:41:47.134Z,7.60
2023-05-15T09:44:50.109Z,7.95
2023-05-15T09:47:53.581Z,7.72
2023-05-15T09:50:56.938Z,9.20
2023-05-15T10:00:08.247Z,8.23
2023-05-15T10:09:42.698Z,8.82
2023-05-15T10:28:00.344Z,7.82
2023-05-15T10:32:01.118Z,7.47
2023-05-15T10:35:14.048Z,6.63
2023-05-15T10:38:27.541Z,7.20
2023-05-15T10:41:31.876Z,6.93
2023-05-15T10:44:35.234Z,7.25
2023-05-15T10:47:40.952Z,5.95
2023-05-15T10:50:45.410Z,7.38
2023-05-15T10:53:48.551Z,7.88
2023-05-15T10:56:52.443Z,7.20
2023-05-15T10:59:55.735Z,7.57
2023-05-15T11:02:59.321Z,8.30
2023-05-15T11:06:11.535Z,7.55
2023-05-15T11:09:38.140Z,6.93
2023-05-15T11:12:57.739Z,6.38
2023-05-15T11:16:01.535Z,6.10
2023-05-15T11:19:04.645Z,5.95
2023-05-15T11:22:21.264Z,5.68
2023-05-15T11:25:31.631Z,6.43
2023-05-15T11:28:44.380Z,6.30
2023-05-15T11:31:47.584Z,5.53
2023-05-15T11:34:51.255Z,5.20
2023-05-15T11:37:57.856Z,5.70
2023-05-15T11:41:03.496Z,5.15
2023-05-15T11:44:06.617Z,4.80
2023-05-15T11:47:11.239Z,4.25
2023-05-15T11:50:14.350Z,4.00
2023-05-15T11:53:20.100Z,4.57
2023-05-15T11:56:26.519Z,3.92
2023-05-15T11:59:31.944Z,4.25
2023-05-15T12:02:39.601Z,3.78
2023-05-15T12:05:56.869Z,3.42
2023-05-15T12:09:07.745Z,3.38
2023-05-15T12:12:50.376Z,3.10
2023-05-15T12:15:56.110Z,3.20
2023-05-15T12:18:59.453Z,2.95
2023-05-15T12:22:06.393Z,2.78
2023-05-15T12:25:14.875Z,2.80
2023-05-15T12:28:18.629Z,2.70
2023-05-15T12:31:24.015Z,3.40
2023-05-15T12:34:27.411Z,3.60
2023-05-15T12:37:33.651Z,3.75
2023-05-15T12:40:38.344Z,3.20
2023-05-15T12:43:42.153Z,3.50
2023-05-15T12:46:45.397Z,3.30
2023-05-15T12:49:48.703Z,3.40
2023-05-15T12:52:53.439Z,4.25
2023-05-15T12:55:57.961Z,3.70
2023-05-15T12:59:03.929Z,3.50
2023-05-15T13:02:11.387Z,3.30
2023-05-15T13:06:05.085Z,3.28
2023-05-15T13:09:31.140Z,2.80
2023-05-15T13:12:49.010Z,2.97
2023-05-15T13:15:52.406Z,3.08
2023-05-15T13:23:19.538Z,4.10
2023-05-15T13:26:38.227Z,3.20
2023-05-15T13:29:46.589Z,3.85
2023-05-15T13:32:49.597Z,3.30
2023-05-15T13:36:00.456Z,3.83
2023-05-15T13:39:09.834Z,2.95
2023-05-15T13:42:17.384Z,2.70
2023-05-15T13:45:36.286Z,2.90
2023-05-15T13:48:42.411Z,3.22
2023-05-15T13:51:49.001Z,2.78
2023-05-15T13:54:52.598Z,4.05
2023-05-15T13:57:58.265Z,2.80
2023-05-15T14:01:17.466Z,3.70
2023-05-15T14:05:01.029Z,3.70
2023-05-15T14:08:12.322Z,4.38
2023-05-15T14:11:18.053Z,4.45
2023-05-15T14:14:24.290Z,4.60
2023-05-15T14:17:31.968Z,4.65
2023-05-15T14:20:35.235Z,4.20
2023-05-15T14:23:41.249Z,4.35
2023-05-15T14:26:45.294Z,4.97
2023-05-15T14:29:49.545Z,4.57
2023-05-15T14:32:54.100Z,5.28
2023-05-15T14:35:58.030Z,5.88
2023-05-15T14:39:01.014Z,5.20
2023-05-15T14:42:04.774Z,5.80
2023-05-15T14:45:09.032Z,5.88
2023-05-15T14:48:13.369Z,5.05
2023-05-15T14:51:18.414Z,5.20
2023-05-15T14:54:22.825Z,5.57
2023-05-15T14:57:36.741Z,5.25
2023-05-15T15:00:40.659Z,4.82
2023-05-15T15:03:53.866Z,4.47
2023-05-15T15:07:18.801Z,3.92
2023-05-15T15:10:28.368Z,4.55
2023-05-15T15:13:41.810Z,5.18
2023-05-15T15:16:46.464Z,5.30
2023-05-15T15:19:53.079Z,7.80
2023-05-15T15:22:56.827Z,4.55
2023-05-15T15:26:00.109Z,5.18
2023-05-15T15:29:04.160Z,4.32
2023-05-15T15:32:08.686Z,5.30
2023-05-15T15:35:13.465Z,4.55
2023-05-15T15:38:16.523Z,4.03
2023-05-15T15:41:21.547Z,4.20
2023-05-15T15:44:25.686Z,4.50
2023-05-15T15:47:53.367Z,4.07
2023-05-15T15:50:59.401Z,3.97
2023-05-15T15:54:02.571Z,4.95
2023-05-15T15:57:08.782Z,4.10
2023-05-15T16:00:13.340Z,4.15
2023-05-15T16:03:16.554Z,4.87
2023-05-15T16:06:21.318Z,4.65
2023-05-15T16:09:24.414Z,4.32
2023-05-15T16:12:27.940Z,4.03
2023-05-15T16:15:30.961Z,4.55
2023-05-15T16:18:34.908Z,3.92
2023-05-15T16:21:43.648Z,5.07
2023-05-15T16:25:25.127Z,4.57
2023-05-15T16:29:43.161Z,5.45
2023-05-15T16:37:06.069Z,4.80
2023-05-15T16:40:10.522Z,5.50
2023-05-15T16:43:14.618Z,7.00
2023-05-15T16:46:18.145Z,5.43
2023-05-15T16:49:21.173Z,5.45
2023-05-15T16:52:25.865Z,4.35
2023-05-15T16:55:31.281Z,4.45
2023-05-15T16:58:34.300Z,4.45
2023-05-15T17:01:40.325Z,5.03
2023-05-15T17:04:48.194Z,4.28
2023-05-15T17:07:53.015Z,4.43
2023-05-15T17:10:56.747Z,4.47
2023-05-15T17:14:00.096Z,4.15
2023-05-15T17:17:26.901Z,4.45
2023-05-15T17:20:32.874Z,3.85
2023-05-15T17:23:37.283Z,4.50
2023-05-15T17:26:40.265Z,4.22
2023-05-15T17:29:43.604Z,4.70
2023-05-15T17:32:49.509Z,4.43
2023-05-15T17:35:52.609Z,4.05
2023-05-15T17:38:56.899Z,3.88
2023-05-15T17:42:18.876Z,4.93
2023-05-15T17:45:36.201Z,4.50
2023-05-15T17:48:53.581Z,5.35
2023-05-15T17:52:07.022Z,4.78
2023-05-15T17:55:15.773Z,4.57
2023-05-15T17:58:18.854Z,4.25
2023-05-15T18:01:22.130Z,4.15
2023-05-15T18:04:25.336Z,4.50
2023-05-15T18:07:28.392Z,3.78
2023-05-15T18:10:33.246Z,5.18
2023-05-15T18:13:36.346Z,5.05
2023-05-15T18:16:45.310Z,5.30
2023-05-15T18:19:49.080Z,4.70
2023-05-15T18:22:55.599Z,5.13
2023-05-15T18:26:05.958Z,5.35
2023-05-15T18:29:09.444Z,4.25
2023-05-15T18:32:12.620Z,5.15
2023-05-15T18:35:15.717Z,4.55
2023-05-15T18:38:18.868Z,5.60
2023-05-15T18:41:23.158Z,6.35
2023-05-15T18:44:26.275Z,5.72
2023-05-15T18:47:29.349Z,6.30
2023-05-15T18:50:34.198Z,5.35
2023-05-15T18:53:37.599Z,5.70
2023-05-15T18:56:50.301Z,6.50
2023-05-15T18:59:54.569Z,5.75
2023-05-15T19:02:57.624Z,5.38
2023-05-15T19:06:00.850Z,5.43
2023-05-15T19:09:06.292Z,5.97
2023-05-15T19:12:10.787Z,5.60
2023-05-15T19:15:15.830Z,5.93
2023-05-15T19:18:19.053Z,4.95
2023-05-15T19:21:22.201Z,5.57
2023-05-15T19:24:25.910Z,5.40
2023-05-15T19:27:30.602Z,5.40
2023-05-15T19:30:33.580Z,6.03
2023-05-15T19:33:36.786Z,6.03
2023-05-15T19:36:42.718Z,6.80
2023-05-15T19:39:45.928Z,5.82
2023-05-15T19:42:50.167Z,6.32
2023-05-15T19:45:53.729Z,6.78
2023-05-15T19:48:56.756Z,6.30
2023-05-15T19:51:59.861Z,6.43
2023-05-15T19:55:02.914Z,7.30
2023-05-15T19:58:07.347Z,6.70
2023-05-15T20:01:10.564Z,6.28
2023-05-15T20:04:14.172Z,6.75
2023-05-15T20:07:17.197Z,6.85
2023-05-15T20:10:20.593Z,6.85
2023-05-15T20:13:25.227Z,8.37
2023-05-15T20:16:28.327Z,6.97
2023-05-15T20:19:31.914Z,7.23
2023-05-15T20:22:36.740Z,6.77
2023-05-15T20:25:40.092Z,6.17
2023-05-15T20:28:45.304Z,6.78
2023-05-15T20:31:48.571Z,7.20
2023-05-15T20:34:52.064Z,7.13
2023-05-15T20:37:56.400Z,7.57
2023-05-15T20:40:59.879Z,7.50
2023-05-15T20:44:04.685Z,6.97
2023-05-15T20:47:08.169Z,7.87
2023-05-15T20:50:12.242Z,7.43
2023-05-15T20:53:15.226Z,6.55
2023-05-15T20:56:18.304Z,6.67
2023-05-15T20:59:23.068Z,6.50
2023-05-15T21:02:26.367Z,6.30
2023-05-15T21:05:31.690Z,6.50
2023-05-15T21:08:34.783Z,6.60
2023-05-15T21:11:37.792Z,8.27
2023-05-15T21:14:42.107Z,6.93
2023-05-15T21:17:45.151Z,6.97
2023-05-15T21:20:48.277Z,6.43
2023-05-15T21:23:51.406Z,6.80
2023-05-15T21:26:54.521Z,6.73
2023-05-15T21:29:59.540Z,6.40
2023-05-15T21:33:03.041Z,7.73
2023-05-15T21:36:07.105Z,7.10
2023-05-15T21:39:10.655Z,7.00
2023-05-15T21:42:13.665Z,7.70
2023-05-15T21:45:18.090Z,6.67
2023-05-15T21:48:21.075Z,8.57
2023-05-15T21:51:24.063Z,7.70
2023-05-15T21:54:27.096Z,8.03
2023-05-15T21:57:31.187Z,8.93
2023-05-15T22:00:35.558Z,8.10
2023-05-15T22:03:38.684Z,10.40
2023-05-15T22:06:41.827Z,10.43
2023-05-15T22:09:45.055Z,10.93
2023-05-15T22:12:48.704Z,10.50
2023-05-15T22:15:54.456Z,10.30
2023-05-15T22:18:57.585Z,9.70
2023-05-15T22:22:01.116Z,12.10
2023-05-15T22:25:04.540Z,12.17
2023-05-15T22:28:08.204Z,12.15
2023-05-15T22:31:12.719Z,9.73
2023-05-15T22:34:15.721Z,9.87
2023-05-15T22:37:19.129Z,11.20
2023-05-15T22:40:22.151Z,10.43
2023-05-15T22:43:25.371Z,9.10
2023-05-15T22:46:30.104Z,8.60
2023-05-15T22:49:33.677Z,8.47
2023-05-15T22:52:38.068Z,10.07
2023-05-15T22:55:41.074Z,8.20
2023-05-15T22:58:44.136Z,7.63
2023-05-15T23:01:50.275Z,8.73
2023-05-15T23:04:53.542Z,9.67
2023-05-15T23:07:56.711Z,10.10
2023-05-15T23:10:59.681Z,9.47
2023-05-15T23:14:03.635Z,9.60
2023-05-15T23:17:08.143Z,9.63
2023-05-15T23:20:13.001Z,11.27
2023-05-15T23:23:16.070Z,12.23
2023-05-15T23:26:19.145Z,11.73
2023-05-15T23:29:22.198Z,11.13
2023-05-15T23:32:28.092Z,11.27
2023-05-15T23:35:31.413Z,11.90
2023-05-15T23:38:34.589Z,13.37
2023-05-15T23:41:37.561Z,11.97
2023-05-15T23:44:40.686Z,13.00
2023-05-15T23:47:46.482Z,11.27
2023-05-15T23:50:49.538Z,12.87
2023-05-15T23:53:52.740Z,14.77
2023-05-15T23:56:55.946Z,10.43
2023-05-15T23:59:59.579Z,13.70
